Portada
METAR-TAF:

METAR-TAF

Aeroports :

Magnitogorsk, Rússia

latitud: 53-23-36N, longitud: 058-45-24E, altitud: 436 m

Observació

L'informe es va fer fa 35 minuts, a les 03:30 UTC
Vent 10 kt del Sud
Temperatura -2°C
Humitat 86%
Pressió 1015 hPa
Visibilitat 10 km o més
Cel cobert a una alçada de 1300 ft

METAR: USCM 200330Z 17005MPS 9999 OVC013 M02/M04 Q1015 R18/090060 TEMPO 25015MPS RMK QFE724

Hora: 09:05 (04:05 UTC)

Pronòstic

L'informe es va fer fa 2 hores i 5 minuts, a les 02:00 UTC
Pronòstic vàlid del 20 a les 03 UTC al 20 a les 12 UTC
Vent 6 kt del Sud/Sud-Oest amb ràfegues de 16 kt
Visibilitat: 6000 m
Cel ennuvolat a una alçada de 2000 ft
Temporalment
l' 20 a les 03 UTC al 20 a les 12 UTC
Vent 10 kt del Sud amb ràfegues de 25 kt
Visibilitat: 3100 m
Cel ennuvolat a una alçada de 1500 ft
neu, boirina

TAF: USCM 200200Z 2003/2012 21003G08MPS 6000 BKN020 TEMPO 2003/2012 19005G13MPS 3100 -SN BR BKN015

Observacions i pronòstics meteorològics de més de 4000 aeroports (METAR i TAF).

Les estacions disponibles són els punts grocs i vermells al mapa.

Posi el ratolí al punt desitjat per veure el nom de l'estació.

Feu clic per veure les observacions i els pronòstics meteorològics.

Per canviar el mapa: feu clic els botons verds amb una creu de color negre per apropar; al botó verd amb un guió per allunyar la imatge; o en les fletxes verdes per a mapes adjacents.


METAR-TAF: